Belleair, Florida
Current Conditions -  °F | °C
As of 2:55 AM on Monday 24 Nov 2014 (Local Time) from KCLW Reporting Station
Haze Haze  
Wind Chill: 73°   Ceiling: 300
Heat Index: 73°   Visibility: 5mi
Dew Point: 72°   Wind: 9mph
Humidity: 94%   Direction: 190°S
Pressure: 29.91"   Gusts: NA
Location:  27.9445°N, 82.7883°W
Report Text: KCLW 240755Z AUTO 19008KT 5SM BR OVC003 23/22 A2991 RMK AO2
Loading
Personal Weather Stations






























Interactive Weather Map New forecast layout! Learn more

10-Day Weather Forecast

Advertisements
Track Severe Weather on mobile